createdAt,value
2019-05-16T00:03:41.192Z,6.49
2019-05-16T00:08:42.079Z,6.58
2019-05-16T00:13:42.951Z,6.58
2019-05-16T00:18:43.829Z,6.49
2019-05-16T00:23:44.712Z,6.44
2019-05-16T00:28:45.674Z,6.36
2019-05-16T00:33:48.778Z,6.50
2019-05-16T00:38:49.548Z,6.62
2019-05-16T00:43:50.423Z,6.48
2019-05-16T00:48:51.297Z,6.47
2019-05-16T00:53:52.277Z,6.38
2019-05-16T00:58:53.580Z,6.45
2019-05-16T01:03:54.440Z,6.36
2019-05-16T01:08:55.322Z,6.46
2019-05-16T01:13:57.902Z,6.34
2019-05-16T01:18:59.102Z,6.50
2019-05-16T01:23:59.939Z,6.61
2019-05-16T01:29:00.911Z,6.41
2019-05-16T01:34:01.782Z,6.39
2019-05-16T01:39:04.359Z,6.40
2019-05-16T01:44:07.698Z,6.43
2019-05-16T01:49:08.358Z,6.38
2019-05-16T01:54:09.363Z,6.30
2019-05-16T01:59:10.246Z,6.51
2019-05-16T02:04:12.195Z,6.44
2019-05-16T02:09:13.404Z,6.35
2019-05-16T02:14:14.279Z,6.32
2019-05-16T02:19:15.138Z,6.56
2019-05-16T02:24:18.227Z,6.40
2019-05-16T02:29:20.473Z,6.41
2019-05-16T02:34:22.049Z,6.39
2019-05-16T02:39:22.949Z,6.42
2019-05-16T02:44:24.691Z,6.50
2019-05-16T02:49:25.923Z,6.37
2019-05-16T02:54:26.915Z,6.40
2019-05-16T02:59:30.598Z,6.45
2019-05-16T03:04:30.854Z,6.49
2019-05-16T03:09:32.864Z,6.38
2019-05-16T03:14:33.853Z,6.36
2019-05-16T03:19:34.913Z,6.36
2019-05-16T03:24:35.799Z,6.58
2019-05-16T03:29:36.669Z,6.47
2019-05-16T03:34:37.534Z,6.42
2019-05-16T03:39:40.704Z,6.49
2019-05-16T03:44:41.260Z,6.46
2019-05-16T03:49:42.405Z,6.46
2019-05-16T03:54:43.557Z,6.35
2019-05-16T03:59:44.461Z,6.50
2019-05-16T04:04:45.331Z,6.54
2019-05-16T04:09:46.311Z,6.55
2019-05-16T04:14:47.279Z,6.53
2019-05-16T04:19:50.756Z,6.50
2019-05-16T04:24:51.345Z,6.70
2019-05-16T04:29:52.512Z,6.70
2019-05-16T04:34:53.391Z,6.64
2019-05-16T04:39:54.270Z,6.78
2019-05-16T04:44:55.142Z,6.73
2019-05-16T04:49:56.030Z,6.68
2019-05-16T04:54:56.885Z,6.65
2019-05-16T04:59:57.782Z,6.83
2019-05-16T05:05:01.192Z,6.76
2019-05-16T05:10:02.134Z,6.91
2019-05-16T05:15:06.413Z,6.97
2019-05-16T05:20:15.621Z,6.97
2019-05-16T05:25:16.602Z,7.08
2019-05-16T05:30:19.756Z,7.29
2019-05-16T05:35:20.928Z,7.08
2019-05-16T05:40:21.960Z,7.20
2019-05-16T05:45:22.832Z,7.28
2019-05-16T05:50:24.304Z,7.63
2019-05-16T05:55:25.194Z,7.60
2019-05-16T06:00:26.174Z,7.63
2019-05-16T06:05:27.045Z,7.78
2019-05-16T06:10:30.296Z,7.65
2019-05-16T06:15:31.007Z,7.87
2019-05-16T06:20:31.880Z,7.73
2019-05-16T06:25:32.761Z,7.98
2019-05-16T06:30:33.831Z,8.20
2019-05-16T06:35:34.717Z,7.91
2019-05-16T06:40:35.585Z,7.97
2019-05-16T06:45:36.700Z,8.04
2019-05-16T06:50:37.574Z,7.93
2019-05-16T06:55:40.112Z,7.83
2019-05-16T07:00:41.251Z,8.06
2019-05-16T07:05:42.131Z,8.22
2019-05-16T07:10:42.997Z,8.11
2019-05-16T07:15:43.931Z,8.15
2019-05-16T07:20:44.808Z,8.31
2019-05-16T07:25:45.680Z,8.24
2019-05-16T07:30:46.561Z,8.37
2019-05-16T07:35:47.628Z,8.51
2019-05-16T07:40:50.795Z,8.33
2019-05-16T07:45:51.760Z,8.33
2019-05-16T07:50:52.785Z,8.50
2019-05-16T07:55:53.659Z,8.64
2019-05-16T08:01:02.688Z,8.46
2019-05-16T08:05:57.828Z,8.63
2019-05-16T08:11:01.456Z,8.61
2019-05-16T08:16:01.786Z,8.83
2019-05-16T08:21:02.675Z,8.96
2019-05-16T08:26:03.557Z,8.93
2019-05-16T08:31:04.432Z,9.12
2019-05-16T08:36:08.191Z,9.34
2019-05-16T08:50:05.529Z,9.65
2019-05-16T08:51:14.165Z,10.04
2019-05-16T08:56:15.630Z,10.04
2019-05-16T09:01:16.624Z,10.29
2019-05-16T09:06:17.955Z,9.86
2019-05-16T09:10:21.220Z,9.52
2019-05-16T09:11:33.863Z,10.48
2019-05-16T09:16:27.711Z,10.37
2019-05-16T09:21:28.973Z,10.55
2019-05-16T09:26:29.902Z,10.32
2019-05-16T09:31:30.890Z,10.00
2019-05-16T09:36:32.479Z,10.21
2019-05-16T09:41:47.625Z,10.25
2019-05-16T09:46:37.636Z,10.01
2019-05-16T09:51:38.829Z,10.01
2019-05-16T09:56:39.704Z,9.79
2019-05-16T10:01:40.704Z,10.28
2019-05-16T10:06:41.682Z,10.41
2019-05-16T10:11:43.015Z,10.57
2019-05-16T10:16:47.573Z,11.14
2019-05-16T10:21:47.624Z,12.44
2019-05-16T10:26:53.741Z,12.44
2019-05-16T10:31:53.470Z,12.93
2019-05-16T10:36:57.341Z,12.61
2019-05-16T10:41:57.572Z,13.21
2019-05-16T10:46:58.620Z,13.21
2019-05-16T10:51:59.494Z,13.25
2019-05-16T10:57:00.591Z,14.01
2019-05-16T11:02:01.592Z,13.98
2019-05-16T11:07:02.501Z,12.89
2019-05-16T11:12:03.854Z,12.97
2019-05-16T11:17:11.837Z,12.93
2019-05-16T11:22:07.839Z,12.65
2019-05-16T11:27:08.711Z,12.60
2019-05-16T11:32:10.149Z,12.51
2019-05-16T11:37:11.019Z,12.56
2019-05-16T11:42:13.170Z,12.38
2019-05-16T11:47:16.497Z,12.37
2019-05-16T11:52:18.041Z,12.42
2019-05-16T11:57:19.139Z,12.62
2019-05-16T12:02:20.381Z,12.08
2019-05-16T12:07:22.189Z,12.38
2019-05-16T12:12:23.073Z,12.36
2019-05-16T12:17:23.943Z,12.71
2019-05-16T12:22:26.776Z,12.67
2019-05-16T12:27:32.616Z,12.69
2019-05-16T12:32:30.433Z,12.54
2019-05-16T12:37:31.312Z,12.57
2019-05-16T12:42:36.489Z,12.48
2019-05-16T12:47:38.281Z,12.14
2019-05-16T12:52:39.739Z,12.25
2019-05-16T12:57:42.637Z,12.05
2019-05-16T13:02:43.534Z,12.37
2019-05-16T13:07:47.883Z,12.50
2019-05-16T13:12:51.357Z,12.37
2019-05-16T13:18:40.614Z,12.29
2019-05-16T13:23:41.581Z,12.42
2019-05-16T13:28:42.463Z,12.42
2019-05-16T13:33:44.241Z,12.07
2019-05-16T13:43:55.256Z,12.08
2019-05-16T13:48:56.107Z,12.16
2019-05-16T13:53:56.980Z,12.18
2019-05-16T13:58:57.863Z,12.20
2019-05-16T14:03:58.752Z,12.34
2019-05-16T14:09:00.493Z,12.20
2019-05-16T14:14:04.726Z,12.59
2019-05-16T14:19:04.736Z,12.49
2019-05-16T14:24:08.478Z,12.97
2019-05-16T14:29:08.412Z,12.77
2019-05-16T14:34:09.285Z,12.98
2019-05-16T14:39:10.271Z,13.03
2019-05-16T14:44:11.150Z,13.17
2019-05-16T14:49:12.023Z,13.02
2019-05-16T14:54:12.907Z,12.81
2019-05-16T14:59:13.769Z,12.68
2019-05-16T15:04:14.938Z,12.85
2019-05-16T15:09:17.191Z,12.58
2019-05-16T15:14:18.695Z,12.89
2019-05-16T15:19:19.608Z,12.65
2019-05-16T15:24:22.361Z,12.58
2019-05-16T15:29:23.622Z,12.55
2019-05-16T15:34:29.901Z,12.69
2019-05-16T15:39:27.831Z,12.74
2019-05-16T15:44:28.673Z,12.46
2019-05-16T15:49:29.649Z,12.53
2019-05-16T15:54:31.340Z,12.62
2019-05-16T15:59:32.232Z,12.74
2019-05-16T16:04:33.112Z,12.58
2019-05-16T16:09:34.095Z,12.81
2019-05-16T16:14:36.765Z,12.95
2019-05-16T16:19:37.740Z,12.81
2019-05-16T16:24:38.708Z,12.73
2019-05-16T16:29:39.582Z,12.57
2019-05-16T16:34:40.958Z,12.51
2019-05-16T16:39:41.829Z,12.50
2019-05-16T16:44:42.704Z,12.26
2019-05-16T16:49:43.601Z,12.44
2019-05-16T16:54:44.469Z,12.92
2019-05-16T16:59:47.666Z,12.97
2019-05-16T17:04:50.907Z,12.39
2019-05-16T17:09:51.039Z,12.45
2019-05-16T17:14:51.890Z,12.24
2019-05-16T17:19:52.864Z,12.26
2019-05-16T17:24:53.768Z,12.06
2019-05-16T17:29:56.890Z,12.03
2019-05-16T17:34:57.408Z,11.96
2019-05-16T17:39:58.271Z,11.94
2019-05-16T17:44:59.191Z,11.87
2019-05-16T17:50:00.049Z,11.96
2019-05-16T17:55:01.023Z,11.82
2019-05-16T18:00:12.813Z,11.82
2019-05-16T18:05:11.075Z,11.59
2019-05-16T18:10:12.760Z,11.65
2019-05-16T18:15:17.449Z,11.55
2019-05-16T18:20:21.667Z,11.60
2019-05-16T18:25:21.623Z,11.47
2019-05-16T18:30:22.989Z,11.46
2019-05-16T18:35:24.014Z,11.48
2019-05-16T18:40:27.132Z,11.53
2019-05-16T18:45:27.836Z,11.53
2019-05-16T18:50:28.756Z,11.51
2019-05-16T18:55:29.651Z,11.47
2019-05-16T19:00:30.863Z,11.49
2019-05-16T19:05:32.135Z,11.44
2019-05-16T19:10:33.230Z,11.39
2019-05-16T19:15:34.237Z,11.11
2019-05-16T19:20:37.175Z,11.17
2019-05-16T19:25:38.085Z,11.16
2019-05-16T19:30:39.109Z,11.23
2019-05-16T19:35:40.014Z,11.32
2019-05-16T19:40:40.897Z,11.30
2019-05-16T19:45:41.888Z,11.29
2019-05-16T19:50:42.769Z,11.14
2019-05-16T19:55:43.687Z,11.02
2019-05-16T20:00:46.530Z,10.96
2019-05-16T20:05:47.725Z,10.96
2019-05-16T20:10:48.889Z,10.90
2019-05-16T20:15:49.777Z,10.87
